WetterOnline ( https://www.wetteronline.ch )

Wetter aktuell Spessart (in 500m)

Aktuelles Wetter: Neuhütten/Spessart (340m)

6-stündlich | Neueste Meldungen
Ortszeit Temperatur Wetter
Di, 23.04. 14:00 19.7° C leicht bewölkt
Di, 23.04. 8:00 11.0° C wolkig
Di, 23.04. 2:00 11.2° C wolkenlos
Mo, 22.04. 20:00 19.9° C leicht bewölkt
Mo, 22.04. 14:00 20.3° C leicht bewölkt
Mo, 22.04. 8:00 7.3° C leicht bewölkt
Mo, 22.04. 2:00 6.8° C wolkenlos
So, 21.04. 20:00 19.8° C wolkenlos
Ortszeit Temperatur Wetter
Di, 23.04. 19:30 18.1° C bewölkt
Di, 23.04. 19:20 18.1° C bewölkt
Di, 23.04. 19:10 18.3° C wolkig
Di, 23.04. 19:00 18.4° C bedeckt
Di, 23.04. 18:50 18.4° C bedeckt
Di, 23.04. 18:40 18.9° C bedeckt
Di, 23.04. 18:30 19.3° C wolkig
Di, 23.04. 18:00 19.7° C bedeckt
Di, 23.04. 17:30 20.0° C wolkig
Di, 23.04. 17:00 20.1° C leicht bewölkt
Di, 23.04. 16:30 20.2° C wolkenlos
Ortszeit Relative Feuchte Sichtweite
Di, 23.04. 14:00 41% 45 km
Di, 23.04. 8:00 58% 50 km
Di, 23.04. 2:00 48% 50 km
Mo, 22.04. 20:00 22% 60 km
Mo, 22.04. 14:00 26% >70 km
Mo, 22.04. 8:00 77% 40 km
Mo, 22.04. 2:00 64% 50 km
So, 21.04. 20:00 22% 60 km
Ortszeit Relative Feuchte Sichtweite
Di, 23.04. 19:30 50% 35 km
Di, 23.04. 19:20 50% -
Di, 23.04. 19:10 49% -
Di, 23.04. 19:00 48% 35 km
Di, 23.04. 18:50 48% -
Di, 23.04. 18:40 46% -
Di, 23.04. 18:30 45% 40 km
Di, 23.04. 18:00 44% 40 km
Di, 23.04. 17:30 42% 40 km
Di, 23.04. 17:00 41% 35 km
Di, 23.04. 16:30 39% 50 km
Ortszeit Niederschlagsmenge Niederschlagsart
Di, 23.04. 14:00 0.0 l/m2 in 6 Std. -
Di, 23.04. 8:00 0.0 l/m2 in 12 Std. -
Di, 23.04. 2:00 0.0 l/m2 in 6 Std. -
Mo, 22.04. 20:00 0.0 l/m2 in 12 Std. -
Mo, 22.04. 14:00 0.0 l/m2 in 6 Std. -
Mo, 22.04. 8:00 0.0 l/m2 in 12 Std. -
Mo, 22.04. 2:00 0.0 l/m2 in 6 Std. -
So, 21.04. 20:00 0.0 l/m2 in 12 Std. -
Ortszeit Niederschlagsmenge Niederschlagsart
Di, 23.04. 19:30 0.0 l/m2 in 1 Std. -
Di, 23.04. 19:20 keine Meldung -
Di, 23.04. 19:10 keine Meldung -
Di, 23.04. 19:00 0.0 l/m2 in 1 Std. -
Di, 23.04. 18:50 keine Meldung -
Di, 23.04. 18:40 keine Meldung -
Di, 23.04. 18:30 0.0 l/m2 in 1 Std. -
Di, 23.04. 18:00 0.0 l/m2 in 1 Std. -
Di, 23.04. 17:30 0.0 l/m2 in 1 Std. -
Di, 23.04. 17:00 0.0 l/m2 in 1 Std. -
Di, 23.04. 16:30 0.0 l/m2 in 1 Std. -
Ortszeit Stärke Spitze Richtung
km/h Bft. km/h Grad Sektor
Di, 23.04. 14:00 18 3 50 150° SO
Di, 23.04. 8:00 22 4 41 90° O
Di, 23.04. 2:00 20 4 43 80° O
Mo, 22.04. 20:00 18 3 47 90° O
Mo, 22.04. 14:00 22 4 50 110° O
Mo, 22.04. 8:00 4 1 7 70° O
Mo, 22.04. 2:00 0 0 14 - -
So, 21.04. 20:00 6 1 31 100° O
Ortszeit Stärke Spitze Richtung
km/h Bft. km/h Grad Sektor
Di, 23.04. 19:30 14 3 32 130° SO
Di, 23.04. 19:20 14 3 - 130° SO
Di, 23.04. 19:10 18 3 - 120° SO
Di, 23.04. 19:00 18 3 32 110° O
Di, 23.04. 18:50 18 3 - 110° O
Di, 23.04. 18:40 20 4 - 120° SO
Di, 23.04. 18:30 14 3 29 120° SO
Di, 23.04. 18:00 14 3 32 120° SO
Di, 23.04. 17:30 22 4 32 150° SO
Di, 23.04. 17:00 18 3 40 120° SO
Di, 23.04. 16:30 18 3 40 150° SO
Ortszeit Untergrenze Bedeckung Gattung
total tief tief mittel hoch
Di, 23.04. 14:00 7500 m 4/8 0/8 - - -
Di, 23.04. 8:00 9000 m 8/8 0/8 - - -
Di, 23.04. 2:00 - 0/8 0/8 - - -
Mo, 22.04. 20:00 7500 m 8/8 0/8 - - -
Mo, 22.04. 14:00 9000 m 6/8 0/8 - - -
Mo, 22.04. 8:00 7200 m 8/8 0/8 - - -
Mo, 22.04. 2:00 - 0/8 0/8 - - -
So, 21.04. 20:00 - 0/8 0/8 - - -
Ortszeit Bedeckungsgrad in Achtel und Wolkenuntergrenze
Di, 23.04. 19:30 5(2700m) 7(3300m) 8(4200m)
Di, 23.04. 19:20 5(2700m) 7(3300m) 8(4200m)
Di, 23.04. 19:10 3(2700m) 7(3300m) 8(4200m)
Di, 23.04. 19:00 6(3300m) 7(5100m) 8(5400m)
Di, 23.04. 18:50 6(3300m) 7(5100m) 8(5400m)
Di, 23.04. 18:40 3(3000m) 7(4800m) 8(5700m)
Di, 23.04. 18:30 1(2700m) 7(3900m) 8(5700m)
Di, 23.04. 18:00 3(3900m) 8(6300m)
Di, 23.04. 17:30 5(3900m) 5(6600m) 7(9000m)
Di, 23.04. 17:00 3(4200m) 5(9000m) 5(9000m)
Di, 23.04. 16:30 2(9000m)
Ortszeit Luftdruck NN (hPa) Tendenz (hPa in 3 Std.)
Di, 23.04. 14:00 999 - 0,8
Di, 23.04. 8:00 1001 - 1,1
Di, 23.04. 2:00 1005 - 1,3
Mo, 22.04. 20:00 1005 - 1,4
Mo, 22.04. 14:00 1009 - 2,4
Mo, 22.04. 8:00 1014 - 1,1
Mo, 22.04. 2:00 1017 - 0,6
So, 21.04. 20:00 1016 - 1,4
Ortszeit Luftdruck NN (hPa) Tendenz (hPa in 3 Std.)
Di, 23.04. 19:30 998 - 0,1
Di, 23.04. 19:20 998 keine Meldung
Di, 23.04. 19:10 998 keine Meldung
Di, 23.04. 19:00 998 - 0,4
Di, 23.04. 18:50 998 keine Meldung
Di, 23.04. 18:40 998 keine Meldung
Di, 23.04. 18:30 998 - 0,4
Di, 23.04. 18:00 998 - 0,6
Di, 23.04. 17:30 998 - 0,6
Di, 23.04. 17:00 998 - 0,5
Di, 23.04. 16:30 998 - 0,3
Ortszeit Schneehöhe (cm)
Di, 23.04. 14:00 0
Di, 23.04. 8:00 0
Di, 23.04. 2:00 0
Mo, 22.04. 20:00 0
Mo, 22.04. 14:00 0
Mo, 22.04. 8:00 0
Mo, 22.04. 2:00 0
So, 21.04. 20:00 0
Ortszeit Schneehöhe (cm)
Di, 23.04. 19:30 0
Di, 23.04. 19:20 0
Di, 23.04. 19:10 0
Di, 23.04. 19:00 0
Di, 23.04. 18:50 0
Di, 23.04. 18:40 0
Di, 23.04. 18:30 0
Di, 23.04. 18:00 0
Di, 23.04. 17:30 0
Di, 23.04. 17:00 0
Di, 23.04. 16:30 0
Link zu dieser Seite / Seite empfehlen

Das Wetter in ...